Huaqun222 — BSOX — position and weather

sailwx.info

Track history (hours):
 
Tides and Currents Weather Stations Pressure Air Temp Water Temp Dewpoint Dewpoint Depression Visibility Wind Speed Wind Dir Waves Ship Positions

Huaqun222

Last reported at 2015-Apr-28 10:20 UTC. Time now 2015-Apr-28 14:32 UTC.
Position N 22°15' E 113°47'.

Length 60 m; draft 2.1 m.

Type: Cargo ship. MMSI: 413467440.

Date/timePositionNaut miles runAvg speedWind from/ knotsBaromVisibWave heightAir tempDewpointWater temp
2015-Apr-28 10:20N 22°15' E 113°47'1 0.0
2015-Apr-26 18:09N 22°16' E 113°48'2 0.3
2015-Apr-26 10:23N 22°15' E 113°46'4 4.4
2015-Apr-26 09:24N 22°17' E 113°50'0 0.0
2015-Apr-26 08:33N 22°17' E 113°50'1 1.0
2015-Apr-26 07:33N 22°16' E 113°49'5 4.5
2015-Apr-26 06:31N 22°13' E 113°45'4 0.9
2015-Apr-26 02:33N 22°16' E 113°48'2 1.8
2015-Apr-26 01:30N 22°17' E 113°50'0 0.2
2015-Apr-26 00:15N 22°17' E 113°50'3 4.5
2015-Apr-25 23:33N 22°15' E 113°47'5 4.5
2015-Apr-25 22:32N 22°11' E 113°44'5 1.6
2015-Apr-25 19:11N 22°15' E 113°48'3 3.5
2015-Apr-25 18:26N 22°17' E 113°50'0 0.0
2015-Apr-25 17:32N 22°17' E 113°50'0 0.2
2015-Apr-25 16:33N 22°17' E 113°50'2 0.4
2015-Apr-25 11:16N 22°16' E 113°48'2 2.3
2015-Apr-25 10:13N 22°17' E 113°50'0 0.0
2015-Apr-25 09:33N 22°17' E 113°50'2 1.7
2015-Apr-25 08:33N 22°16' E 113°48'5 4.9
2015-Apr-25 07:33N 22°12' E 113°45'4 0.9
2015-Apr-25 03:32N 22°15' E 113°47'3 0.6
2015-Apr-24 22:30N 22°17' E 113°49'0 0.0
2015-Apr-24 19:18N 22°18' E 113°49'0 0.0
2015-Apr-24 16:03N 22°18' E 113°49'0 0.1
2015-Apr-24 14:33N 22°17' E 113°49'0 0.0
2015-Apr-24 12:33N 22°17' E 113°49'0 0.0
2015-Apr-24 10:06N 22°17' E 113°49'0 0.0
2015-Apr-24 09:30N 22°17' E 113°49'0 0.0
2015-Apr-24 08:33N 22°17' E 113°49'0 0.0
2015-Apr-24 07:30N 22°17' E 113°49'0 0.0
2015-Apr-24 00:32N 22°17' E 113°49'0 0.0
2015-Apr-23 23:30N 22°17' E 113°49'0 0.0
2015-Apr-23 22:10N 22°17' E 113°49'0 0.1
2015-Apr-23 21:25N 22°17' E 113°49'0 0.1
2015-Apr-23 20:32N 22°17' E 113°49'0 0.0
2015-Apr-23 16:24N 22°18' E 113°49'0 0.0
2015-Apr-23 15:27N 22°18' E 113°49'0 0.0
2015-Apr-23 13:32N 22°17' E 113°49'0 0.0
2015-Apr-23 11:23N 22°17' E 113°49'0 0.1
2015-Apr-23 10:06N 22°18' E 113°49'0 0.1
2015-Apr-23 09:33N 22°18' E 113°49'0 0.0
2015-Apr-23 08:33N 22°18' E 113°49'0 0.0
2015-Apr-23 03:32N 22°18' E 113°49'0 0.0
2015-Apr-23 02:11N 22°18' E 113°49'0 0.2
2015-Apr-22 23:31N 22°17' E 113°49'0 0.0
2015-Apr-22 22:18N 22°17' E 113°49'0 0.0
2015-Apr-22 21:33N 22°17' E 113°49'0 0.0
2015-Apr-22 20:24N 22°17' E 113°49'1 0.1
2015-Apr-22 13:08N 22°17' E 113°49'1 2.6
2015-Apr-22 12:33N 22°16' E 113°48'2 2.2
2015-Apr-22 11:30N 22°17' E 113°50'0 0.0
2015-Apr-22 10:30N 22°17' E 113°50'3 3.2
2015-Apr-22 09:34N 22°15' E 113°48'2 0.2
2015-Apr-22 01:28N 22°16' E 113°49'4 4.4
2015-Apr-22 00:33N 22°14' E 113°45'2 0.5
2015-Apr-21 20:23N 22°15' E 113°47'3 3.5
2015-Apr-21 19:30N 22°17' E 113°50'0 0.1
2015-Apr-21 18:04N 22°17' E 113°50'2 0.4
2015-Apr-21 12:33N 22°16' E 113°48'1 0.2
2015-Apr-21 09:33N 22°16' E 113°49'3 3.5
2015-Apr-21 08:33N 22°13' E 113°46'4 0.8
2015-Apr-21 03:32N 22°16' E 113°49'0 0.1
2015-Apr-21 00:26N 22°17' E 113°49'3 0.6
2015-Apr-20 19:07N 22°15' E 113°46'3 4.7
2015-Apr-20 18:33N 22°16' E 113°49'0 0.1
2015-Apr-20 15:24N 22°16' E 113°49'2 0.3
2015-Apr-20 10:33N 22°15' E 113°47'3 0.6
2015-Apr-20 05:24N 22°18' E 113°49'0 0.0
2015-Apr-19 22:19N 22°18' E 113°49'0 0.0
2015-Apr-19 20:33N 22°18' E 113°49'0 0.0
2015-Apr-19 19:32N 22°18' E 113°49'0 0.0
2015-Apr-19 18:20N 22°18' E 113°49'0 0.0
2015-Apr-19 11:33N 22°18' E 113°49'0 0.0
2015-Apr-19 10:29N 22°18' E 113°49'0 0.0
2015-Apr-19 05:32N 22°18' E 113°49'0 0.0
2015-Apr-18 17:24N 22°18' E 113°49'  
Track history (hours):
 
Tides and Currents Weather Stations Pressure Air Temp Water Temp Dewpoint Dewpoint Depression Visibility Wind Speed Wind Dir Waves Ship Positions

Huaqun222

Last reported at 2015-Apr-28 10:20 UTC. Time now 2015-Apr-28 14:32 UTC.
Position N 22°15' E 113°47'.

Length 60 m; draft 2.1 m.

Type: Cargo ship. MMSI: 413467440.

Date/timePositionNaut miles runAvg speedWind from/ knotsBaromVisibWave heightAir tempDewpointWater temp
2015-Apr-28 10:20N 22°15' E 113°47'1 0.0
2015-Apr-26 18:09N 22°16' E 113°48'2 0.3
2015-Apr-26 10:23N 22°15' E 113°46'4 4.4
2015-Apr-26 09:24N 22°17' E 113°50'0 0.0
2015-Apr-26 08:33N 22°17' E 113°50'1 1.0
2015-Apr-26 07:33N 22°16' E 113°49'5 4.5
2015-Apr-26 06:31N 22°13' E 113°45'4 0.9
2015-Apr-26 02:33N 22°16' E 113°48'2 1.8
2015-Apr-26 01:30N 22°17' E 113°50'0 0.2
2015-Apr-26 00:15N 22°17' E 113°50'3 4.5
2015-Apr-25 23:33N 22°15' E 113°47'5 4.5
2015-Apr-25 22:32N 22°11' E 113°44'5 1.6
2015-Apr-25 19:11N 22°15' E 113°48'3 3.5
2015-Apr-25 18:26N 22°17' E 113°50'0 0.0
2015-Apr-25 17:32N 22°17' E 113°50'0 0.2
2015-Apr-25 16:33N 22°17' E 113°50'2 0.4
2015-Apr-25 11:16N 22°16' E 113°48'2 2.3
2015-Apr-25 10:13N 22°17' E 113°50'0 0.0
2015-Apr-25 09:33N 22°17' E 113°50'2 1.7
2015-Apr-25 08:33N 22°16' E 113°48'5 4.9
2015-Apr-25 07:33N 22°12' E 113°45'4 0.9
2015-Apr-25 03:32N 22°15' E 113°47'3 0.6
2015-Apr-24 22:30N 22°17' E 113°49'0 0.0
2015-Apr-24 19:18N 22°18' E 113°49'0 0.0
2015-Apr-24 16:03N 22°18' E 113°49'0 0.1
2015-Apr-24 14:33N 22°17' E 113°49'0 0.0
2015-Apr-24 12:33N 22°17' E 113°49'0 0.0
2015-Apr-24 10:06N 22°17' E 113°49'0 0.0
2015-Apr-24 09:30N 22°17' E 113°49'0 0.0
2015-Apr-24 08:33N 22°17' E 113°49'0 0.0
2015-Apr-24 07:30N 22°17' E 113°49'0 0.0
2015-Apr-24 00:32N 22°17' E 113°49'0 0.0
2015-Apr-23 23:30N 22°17' E 113°49'0 0.0
2015-Apr-23 22:10N 22°17' E 113°49'0 0.1
2015-Apr-23 21:25N 22°17' E 113°49'0 0.1
2015-Apr-23 20:32N 22°17' E 113°49'0 0.0
2015-Apr-23 16:24N 22°18' E 113°49'0 0.0
2015-Apr-23 15:27N 22°18' E 113°49'0 0.0
2015-Apr-23 13:32N 22°17' E 113°49'0 0.0
2015-Apr-23 11:23N 22°17' E 113°49'0 0.1
2015-Apr-23 10:06N 22°18' E 113°49'0 0.1
2015-Apr-23 09:33N 22°18' E 113°49'0 0.0
2015-Apr-23 08:33N 22°18' E 113°49'0 0.0
2015-Apr-23 03:32N 22°18' E 113°49'0 0.0
2015-Apr-23 02:11N 22°18' E 113°49'0 0.2
2015-Apr-22 23:31N 22°17' E 113°49'0 0.0
2015-Apr-22 22:18N 22°17' E 113°49'0 0.0
2015-Apr-22 21:33N 22°17' E 113°49'0 0.0
2015-Apr-22 20:24N 22°17' E 113°49'1 0.1
2015-Apr-22 13:08N 22°17' E 113°49'1 2.6
2015-Apr-22 12:33N 22°16' E 113°48'2 2.2
2015-Apr-22 11:30N 22°17' E 113°50'0 0.0
2015-Apr-22 10:30N 22°17' E 113°50'3 3.2
2015-Apr-22 09:34N 22°15' E 113°48'2 0.2
2015-Apr-22 01:28N 22°16' E 113°49'4 4.4
2015-Apr-22 00:33N 22°14' E 113°45'2 0.5
2015-Apr-21 20:23N 22°15' E 113°47'3 3.5
2015-Apr-21 19:30N 22°17' E 113°50'0 0.1
2015-Apr-21 18:04N 22°17' E 113°50'2 0.4
2015-Apr-21 12:33N 22°16' E 113°48'1 0.2
2015-Apr-21 09:33N 22°16' E 113°49'3 3.5
2015-Apr-21 08:33N 22°13' E 113°46'4 0.8
2015-Apr-21 03:32N 22°16' E 113°49'0 0.1
2015-Apr-21 00:26N 22°17' E 113°49'3 0.6
2015-Apr-20 19:07N 22°15' E 113°46'3 4.7
2015-Apr-20 18:33N 22°16' E 113°49'0 0.1
2015-Apr-20 15:24N 22°16' E 113°49'2 0.3
2015-Apr-20 10:33N 22°15' E 113°47'3 0.6
2015-Apr-20 05:24N 22°18' E 113°49'0 0.0
2015-Apr-19 22:19N 22°18' E 113°49'0 0.0
2015-Apr-19 20:33N 22°18' E 113°49'0 0.0
2015-Apr-19 19:32N 22°18' E 113°49'0 0.0
2015-Apr-19 18:20N 22°18' E 113°49'0 0.0
2015-Apr-19 11:33N 22°18' E 113°49'0 0.0
2015-Apr-19 10:29N 22°18' E 113°49'0 0.0
2015-Apr-19 05:32N 22°18' E 113°49'0 0.0
2015-Apr-18 17:24N 22°18' E 113°49'  

Dump ship's entire track history